Time;durP1;ratioP1;P1;durP2;ratioP2;P2;SDS_P1;SDS_P2;PMS_P1;PMS_P2;Temp;Humidity;BMP_temperature;BMP_pressure;BME280_temperature;BME280_humidity;BME280_pressure;Samples;Min_cycle;Max_cycle;Signal;HPM_P1;HPM_P2
2022/09/29 00:02:18;;;;;;;36.17;15.27;;;;;;;7.60;100.00;98333.94;4191582;28;20247;-70
2022/09/29 00:04:45;;;;;;;31.20;14.97;;;;;;;7.61;100.00;98332.94;4163221;29;20248;-69
2022/09/29 00:07:11;;;;;;;30.87;14.83;;;;;;;7.51;100.00;98332.34;4181830;28;20255;-70
2022/09/29 00:09:38;;;;;;;31.33;14.20;;;;;;;7.53;100.00;98330.34;4174592;28;20253;-70
2022/09/29 00:12:04;;;;;;;24.87;12.67;;;;;;;7.54;100.00;98324.06;4179888;28;20467;-70
2022/09/29 00:14:31;;;;;;;27.50;12.63;;;;;;;7.54;100.00;98326.72;4184436;28;20492;-69
2022/09/29 00:16:57;;;;;;;22.23;12.37;;;;;;;7.52;100.00;98323.41;4177099;28;20304;-70
2022/09/29 00:19:24;;;;;;;22.97;12.50;;;;;;;7.44;100.00;98327.94;4183137;28;20652;-69
2022/09/29 00:21:51;;;;;;;25.07;12.63;;;;;;;7.48;100.00;98323.94;4186270;28;20308;-69
2022/09/29 00:24:17;;;;;;;21.93;11.77;;;;;;;7.48;100.00;98324.75;4180172;28;26600;-72
2022/09/29 00:26:45;;;;;;;21.63;12.37;;;;;;;7.51;100.00;98328.88;4157883;28;20290;-70
2022/09/29 00:29:12;;;;;;;25.43;13.50;;;;;;;7.36;100.00;98336.78;4179457;28;22780;-69
2022/09/29 00:31:38;;;;;;;28.30;13.70;;;;;;;7.27;100.00;98330.69;4177975;28;20320;-70
2022/09/29 00:34:05;;;;;;;23.37;13.47;;;;;;;7.21;100.00;98325.28;4187998;28;21026;-69
2022/09/29 00:36:31;;;;;;;28.03;14.93;;;;;;;7.19;100.00;98320.19;4192015;28;21835;-69
2022/09/29 00:38:58;;;;;;;29.13;14.53;;;;;;;7.26;100.00;98330.88;4175957;28;23019;-70
2022/09/29 00:41:27;;;;;;;30.33;15.00;;;;;;;7.13;100.00;98340.22;4169380;28;20229;-70
2022/09/29 00:43:59;;;;;;;30.90;14.70;;;;;;;7.13;100.00;98334.91;4182825;28;21286;-68
2022/09/29 00:46:47;;;;;;;26.10;15.10;;;;;;;7.08;100.00;98336.47;4183362;28;21705;-70
2022/09/29 00:49:23;;;;;;;28.30;14.83;;;;;;;7.06;100.00;98336.63;4183086;28;20242;-69
2022/09/29 00:51:59;;;;;;;28.27;14.93;;;;;;;7.04;100.00;98332.50;4154140;28;21575;-70
2022/09/29 00:54:29;;;;;;;25.73;13.90;;;;;;;7.15;100.00;98329.47;4169080;28;20459;-69
2022/09/29 00:56:56;;;;;;;31.00;13.97;;;;;;;7.10;100.00;98335.28;4181575;28;20382;-70
2022/09/29 00:59:35;;;;;;;27.10;14.83;;;;;;;7.01;100.00;98341.63;4170851;28;20306;-69
2022/09/29 01:02:04;;;;;;;25.77;14.53;;;;;;;6.99;100.00;98340.97;4167556;28;20245;-69
2022/09/29 01:04:31;;;;;;;29.83;15.27;;;;;;;6.96;100.00;98341.31;4169984;28;20245;-69
2022/09/29 01:06:58;;;;;;;29.87;14.97;;;;;;;7.01;100.00;98346.09;4172726;28;21556;-70
2022/09/29 01:09:28;;;;;;;27.10;13.93;;;;;;;7.00;100.00;98345.25;4158977;28;20263;-68
2022/09/29 01:11:59;;;;;;;27.57;14.43;;;;;;;6.93;100.00;98346.94;4156993;28;23522;-70
2022/09/29 01:14:26;;;;;;;26.80;15.07;;;;;;;6.88;100.00;98341.34;4168907;28;20242;-70
2022/09/29 01:16:53;;;;;;;23.93;14.67;;;;;;;6.87;100.00;98350.28;4154795;28;20256;-70
2022/09/29 01:19:31;;;;;;;28.60;14.80;;;;;;;6.86;100.00;98351.25;4177405;28;20598;-72
2022/09/29 01:22:48;;;;;;;24.83;14.13;;;;;;;6.84;100.00;98356.75;4165241;28;20234;-70
2022/09/29 01:25:52;;;;;;;23.07;13.37;;;;;;;6.83;100.00;98357.72;4145564;28;20244;-70
2022/09/29 01:28:56;;;;;;;26.00;14.00;;;;;;;6.79;100.00;98355.59;4186258;28;20469;-71
2022/09/29 01:32:01;;;;;;;30.20;14.93;;;;;;;6.72;100.00;98358.94;4160521;28;21783;-70
2022/09/29 01:34:59;;;;;;;29.77;15.37;;;;;;;6.64;100.00;98361.59;4170832;28;21611;-70
2022/09/29 01:38:07;;;;;;;30.03;16.00;;;;;;;6.61;100.00;98366.41;4154271;28;20656;-68
2022/09/29 01:40:53;;;;;;;31.93;16.27;;;;;;;6.59;100.00;98361.28;4166119;28;21581;-68
2022/09/29 01:43:26;;;;;;;26.83;14.97;;;;;;;6.64;100.00;98368.72;4157824;28;20364;-70
2022/09/29 01:46:01;;;;;;;29.50;16.20;;;;;;;6.60;100.00;98357.66;4158261;28;22902;-70
2022/09/29 01:48:32;;;;;;;29.47;15.97;;;;;;;6.65;100.00;98368.56;4167701;28;20242;-69
2022/09/29 01:51:10;;;;;;;30.33;15.90;;;;;;;6.58;100.00;98370.22;4156224;28;20238;-69
2022/09/29 01:53:43;;;;;;;33.67;16.53;;;;;;;6.53;100.00;98368.09;4171550;28;25553;-69
2022/09/29 01:56:13;;;;;;;31.77;16.17;;;;;;;6.55;100.00;98366.13;4157564;28;20233;-69
2022/09/29 01:58:47;;;;;;;35.30;15.73;;;;;;;6.60;100.00;98368.22;4161766;28;20257;-70
2022/09/29 02:01:15;;;;;;;30.67;16.67;;;;;;;6.59;100.00;98363.13;4150350;28;21044;-69
2022/09/29 02:04:04;;;;;;;32.60;16.27;;;;;;;6.59;100.00;98363.94;4165984;28;22200;-70
2022/09/29 02:06:36;;;;;;;30.00;15.83;;;;;;;6.58;100.00;98369.38;4164238;28;20238;-70
2022/09/29 02:09:08;;;;;;;29.43;15.27;;;;;;;6.58;100.00;98372.88;4163165;28;20356;-70
2022/09/29 02:11:37;;;;;;;29.37;15.57;;;;;;;6.59;100.00;98371.88;4166094;28;20433;-68
2022/09/29 02:14:12;;;;;;;27.63;15.47;;;;;;;6.61;100.00;98372.53;4178100;28;25801;-68
2022/09/29 02:16:43;;;;;;;30.20;16.30;;;;;;;6.64;100.00;98374.81;4173531;28;20624;-72
2022/09/29 02:19:16;;;;;;;27.70;14.97;;;;;;;6.63;100.00;98381.09;4169766;28;20412;-70
2022/09/29 02:21:43;;;;;;;26.67;14.50;;;;;;;6.59;100.00;98382.44;4157672;28;20237;-69
2022/09/29 02:24:12;;;;;;;28.77;14.87;;;;;;;6.55;100.00;98383.75;4168246;28;20467;-69
2022/09/29 02:26:40;;;;;;;26.07;13.87;;;;;;;6.60;100.00;98389.34;4171922;28;23810;-69
2022/09/29 02:29:07;;;;;;;29.17;13.93;;;;;;;6.58;100.00;98395.81;4162743;28;20336;-69
2022/09/29 02:31:35;;;;;;;26.90;14.20;;;;;;;6.55;100.00;98383.75;4167992;28;20299;-72
2022/09/29 02:34:03;;;;;;;28.20;15.20;;;;;;;6.68;100.00;98394.63;4157743;28;20252;-70
2022/09/29 02:36:32;;;;;;;28.80;14.37;;;;;;;6.66;100.00;98388.69;4166858;28;22320;-70
2022/09/29 02:39:07;;;;;;;28.97;14.57;;;;;;;6.61;100.00;98391.03;4156329;28;21858;-71
2022/09/29 02:41:46;;;;;;;31.73;14.37;;;;;;;6.61;100.00;98396.31;4170838;28;20233;-70
2022/09/29 02:44:43;;;;;;;34.50;15.77;;;;;;;6.69;100.00;98412.13;4192714;28;22440;-71
2022/09/29 02:47:31;;;;;;;29.87;14.93;;;;;;;6.74;100.00;98411.63;4175975;28;20339;-72
2022/09/29 02:50:18;;;;;;;29.23;14.93;;;;;;;6.74;100.00;98407.19;4165550;28;20310;-69
2022/09/29 02:52:52;;;;;;;28.17;14.97;;;;;;;6.78;100.00;98412.94;4177936;28;20233;-70
2022/09/29 02:55:23;;;;;;;31.13;16.10;;;;;;;6.84;100.00;98422.00;4163670;28;20235;-71
2022/09/29 02:58:14;;;;;;;29.80;16.53;;;;;;;6.77;100.00;98421.88;4156687;28;21699;-70
2022/09/29 03:00:41;;;;;;;30.57;15.40;;;;;;;6.84;100.00;98424.66;4162313;28;24057;-71
2022/09/29 03:03:08;;;;;;;27.23;15.83;;;;;;;6.71;100.00;98422.53;4175103;28;20235;-71
2022/09/29 03:05:34;;;;;;;29.70;16.70;;;;;;;6.75;100.00;98418.56;4150262;29;20241;-71
2022/09/29 03:08:01;;;;;;;26.33;15.53;;;;;;;6.75;100.00;98418.56;4145742;28;20238;-71
2022/09/29 03:10:28;;;;;;;36.53;17.80;;;;;;;6.75;100.00;98415.94;4166320;28;20233;-72
2022/09/29 03:12:55;;;;;;;29.87;16.43;;;;;;;6.67;100.00;98422.06;4161608;28;20243;-70
2022/09/29 03:15:22;;;;;;;27.93;17.00;;;;;;;6.68;100.00;98430.81;4181385;28;20566;-71
2022/09/29 03:17:49;;;;;;;24.77;16.13;;;;;;;6.64;100.00;98422.38;4153541;28;20241;-70
2022/09/29 03:20:15;;;;;;;27.67;16.90;;;;;;;6.59;100.00;98430.00;4182638;28;20261;-70
2022/09/29 03:22:42;;;;;;;22.97;15.47;;;;;;;6.54;100.00;98433.16;4170473;28;22987;-71
2022/09/29 03:25:08;;;;;;;24.10;15.20;;;;;;;6.53;100.00;98439.44;4172268;28;20244;-71
2022/09/29 03:27:37;;;;;;;24.73;14.87;;;;;;;6.59;100.00;98448.50;4164305;28;20230;-70
2022/09/29 03:30:04;;;;;;;22.33;14.40;;;;;;;6.54;100.00;98450.81;4177410;28;20237;-72
2022/09/29 03:32:30;;;;;;;22.33;14.93;;;;;;;6.55;100.00;98445.38;4170297;28;20392;-72
2022/09/29 03:34:57;;;;;;;24.70;15.10;;;;;;;6.51;100.00;98441.41;4168024;28;20251;-70
2022/09/29 03:37:23;;;;;;;23.03;14.90;;;;;;;6.45;100.00;98438.63;4166355;28;20306;-71
2022/09/29 03:39:50;;;;;;;29.83;14.97;;;;;;;6.46;100.00;98432.34;4169001;28;20371;-71
2022/09/29 03:42:16;;;;;;;26.43;15.47;;;;;;;6.46;100.00;98434.97;4177029;28;20516;-71
2022/09/29 03:44:43;;;;;;;26.53;14.20;;;;;;;6.44;100.00;98436.97;4166528;28;20789;-70
2022/09/29 03:47:09;;;;;;;26.50;15.07;;;;;;;6.45;100.00;98438.63;4181585;28;20238;-72
2022/09/29 03:49:36;;;;;;;20.83;13.93;;;;;;;6.42;100.00;98441.59;4167801;28;20245;-73
2022/09/29 03:52:03;;;;;;;22.17;14.13;;;;;;;6.43;100.00;98448.53;4162090;28;20242;-71
2022/09/29 03:54:29;;;;;;;23.80;14.53;;;;;;;6.45;100.00;98449.19;4167441;28;20255;-71
2022/09/29 03:56:56;;;;;;;22.57;14.07;;;;;;;6.41;100.00;98453.16;4165407;28;20229;-72
2022/09/29 03:59:22;;;;;;;22.23;13.83;;;;;;;6.40;100.00;98456.81;4172262;28;20610;-70
2022/09/29 04:01:49;;;;;;;25.37;13.97;;;;;;;6.40;100.00;98454.97;4177811;28;20245;-70
2022/09/29 04:04:15;;;;;;;23.03;14.13;;;;;;;6.40;100.00;98440.94;4169842;28;21867;-70
2022/09/29 04:06:42;;;;;;;21.13;13.73;;;;;;;6.44;100.00;98436.97;4171748;28;20240;-71
2022/09/29 04:09:08;;;;;;;23.83;13.57;;;;;;;6.46;100.00;98441.09;4185450;28;20229;-70
2022/09/29 04:11:35;;;;;;;23.57;14.57;;;;;;;6.43;100.00;98437.97;4164535;28;20305;-70
2022/09/29 04:14:03;;;;;;;24.20;13.77;;;;;;;6.41;100.00;98438.13;4175432;28;20223;-71
2022/09/29 04:16:29;;;;;;;22.73;14.53;;;;;;;6.52;100.00;98447.53;4151763;28;22412;-72
2022/09/29 04:18:56;;;;;;;23.67;13.90;;;;;;;6.45;100.00;98443.91;4151568;28;21086;-72
2022/09/29 04:21:22;;;;;;;24.00;14.33;;;;;;;6.45;100.00;98444.72;4190514;28;20832;-72
2022/09/29 04:23:49;;;;;;;25.30;15.30;;;;;;;6.41;100.00;98448.69;4153279;28;20757;-71
2022/09/29 04:26:16;;;;;;;24.53;14.80;;;;;;;6.47;100.00;98457.78;4176591;28;20459;-72
2022/09/29 04:28:42;;;;;;;24.50;14.60;;;;;;;6.47;100.00;98453.31;4169293;28;20441;-71
2022/09/29 04:31:09;;;;;;;22.67;14.20;;;;;;;6.56;100.00;98464.69;4181840;28;20724;-71
2022/09/29 04:33:38;;;;;;;28.33;14.80;;;;;;;6.51;100.00;98469.66;4180342;28;20600;-70
2022/09/29 04:36:04;;;;;;;28.53;14.93;;;;;;;6.55;100.00;98465.69;4168698;28;20318;-71
2022/09/29 04:38:31;;;;;;;28.37;15.17;;;;;;;6.58;100.00;98468.00;4176508;28;20269;-70
2022/09/29 04:40:58;;;;;;;25.10;14.83;;;;;;;6.59;100.00;98482.84;4169766;28;20264;-71
2022/09/29 04:43:24;;;;;;;24.60;14.90;;;;;;;6.63;100.00;98478.88;4152611;29;20228;-70
2022/09/29 04:45:51;;;;;;;24.17;14.07;;;;;;;6.63;100.00;98478.06;4146944;28;20404;-71
2022/09/29 04:48:18;;;;;;;26.13;15.30;;;;;;;6.63;100.00;98478.88;4169520;28;22189;-70
2022/09/29 04:50:45;;;;;;;27.50;15.33;;;;;;;6.71;100.00;98480.69;4173480;28;20310;-71
2022/09/29 04:53:13;;;;;;;27.63;15.47;;;;;;;6.78;100.00;98486.94;4156991;28;22174;-70
2022/09/29 04:55:40;;;;;;;24.70;14.77;;;;;;;6.78;100.00;98483.47;4159738;28;20425;-72
2022/09/29 04:58:07;;;;;;;23.37;14.33;;;;;;;6.79;100.00;98482.47;4168324;28;20945;-70
2022/09/29 05:00:34;;;;;;;24.67;14.83;;;;;;;6.83;100.00;98481.97;4172098;28;22776;-71
2022/09/29 05:03:00;;;;;;;23.67;14.67;;;;;;;6.87;100.00;98485.13;4162950;28;20274;-71
2022/09/29 05:05:27;;;;;;;25.77;15.27;;;;;;;6.88;100.00;98486.75;4179242;28;22267;-69
2022/09/29 05:07:53;;;;;;;27.97;15.97;;;;;;;6.90;100.00;98487.41;4178014;29;20278;-70
2022/09/29 05:10:20;;;;;;;29.87;16.87;;;;;;;6.95;100.00;98488.56;4183792;28;20425;-67
2022/09/29 05:12:49;;;;;;;29.30;15.80;;;;;;;7.00;100.00;98490.72;4150403;29;20750;-70
2022/09/29 05:15:18;;;;;;;28.40;16.30;;;;;;;7.01;100.00;98489.69;4190927;28;20248;-71
2022/09/29 05:17:52;;;;;;;29.20;16.10;;;;;;;7.04;100.00;98499.09;4186708;28;20237;-70
2022/09/29 05:20:18;;;;;;;30.90;16.53;;;;;;;7.01;100.00;98504.75;4181176;29;20326;-70
2022/09/29 05:22:45;;;;;;;28.43;15.90;;;;;;;7.02;100.00;98509.84;4155533;28;21306;-74
2022/09/29 05:25:11;;;;;;;26.40;16.03;;;;;;;7.05;100.00;98514.81;4163495;28;20256;-69
2022/09/29 05:27:38;;;;;;;36.97;16.57;;;;;;;7.21;100.00;98513.09;4175502;28;20253;-68
2022/09/29 05:30:05;;;;;;;24.47;14.80;;;;;;;7.18;100.00;98519.56;4162249;28;20230;-71
2022/09/29 05:32:31;;;;;;;27.73;15.33;;;;;;;7.27;100.00;98520.38;4158556;28;20246;-70
2022/09/29 05:34:58;;;;;;;30.13;16.20;;;;;;;7.26;100.00;98516.03;4152778;29;21504;-71
2022/09/29 05:37:25;;;;;;;29.50;16.40;;;;;;;7.27;100.00;98530.94;4169395;28;20255;-75
2022/09/29 05:39:52;;;;;;;25.63;14.87;;;;;;;7.30;100.00;98520.81;4152950;28;20363;-77
2022/09/29 05:42:19;;;;;;;27.10;13.70;;;;;;;7.27;100.00;98530.94;4162382;29;20240;-82
2022/09/29 05:44:45;;;;;;;26.17;14.40;;;;;;;7.22;100.00;98528.81;4160353;28;20230;-71
2022/09/29 05:47:12;;;;;;;33.70;16.00;;;;;;;7.26;100.00;98532.78;4151566;28;22347;-72
2022/09/29 05:49:38;;;;;;;25.33;14.67;;;;;;;7.34;100.00;98534.56;4178760;28;20296;-74
2022/09/29 05:52:05;;;;;;;27.77;15.13;;;;;;;7.28;100.00;98538.72;4152243;28;20245;-76
2022/09/29 05:54:32;;;;;;;25.77;14.17;;;;;;;7.25;100.00;98538.22;4167490;28;21849;-80
2022/09/29 05:56:58;;;;;;;27.80;13.83;;;;;;;7.29;100.00;98542.19;4158325;28;21142;-73
2022/09/29 05:59:25;;;;;;;27.43;14.87;;;;;;;7.31;100.00;98551.59;4180290;28;22206;-72
2022/09/29 06:01:52;;;;;;;26.37;14.07;;;;;;;7.31;100.00;98546.31;4150323;28;21822;-76
2022/09/29 06:04:18;;;;;;;24.90;13.23;;;;;;;7.33;100.00;98548.78;4146677;28;20239;-75
2022/09/29 06:06:47;;;;;;;24.23;14.43;;;;;;;7.17;100.00;98542.53;4184429;28;20732;-76
2022/09/29 06:09:13;;;;;;;27.33;15.00;;;;;;;7.17;100.00;98555.78;4161483;28;20535;-73
2022/09/29 06:11:41;;;;;;;30.23;14.80;;;;;;;7.12;100.00;98549.34;4165827;28;20962;-70
2022/09/29 06:14:07;;;;;;;25.60;14.13;;;;;;;7.10;100.00;98549.50;4167533;28;20279;-75
2022/09/29 06:16:34;;;;;;;26.00;14.57;;;;;;;7.09;100.00;98537.25;4178846;28;20360;-72
2022/09/29 06:19:03;;;;;;;28.07;15.47;;;;;;;7.13;100.00;98554.44;4179017;28;20386;-72
2022/09/29 06:21:30;;;;;;;26.13;15.80;;;;;;;7.14;100.00;98560.56;4151665;28;20244;-71
2022/09/29 06:23:57;;;;;;;25.57;15.20;;;;;;;7.11;100.00;98561.72;4163400;28;21299;-73
2022/09/29 06:26:25;;;;;;;24.90;15.60;;;;;;;7.04;100.00;98565.22;4168937;28;20320;-73
2022/09/29 06:28:52;;;;;;;26.13;15.83;;;;;;;7.12;100.00;98567.88;4175505;28;20237;-73
2022/09/29 06:31:22;;;;;;;26.27;16.10;;;;;;;7.10;100.00;98575.97;4170056;28;20299;-73
2022/09/29 06:33:49;;;;;;;27.33;15.70;;;;;;;7.12;100.00;98571.31;4164595;28;20246;-73
2022/09/29 06:39:04;;;;;;;29.27;16.50;;;;;;;7.10;100.00;98575.97;4178075;28;21153;-75
2022/09/29 06:41:31;;;;;;;32.93;17.43;;;;;;;7.14;100.00;98577.28;4161857;28;20445;-74
2022/09/29 06:43:57;;;;;;;26.43;15.63;;;;;;;7.17;100.00;98576.94;4161942;28;20338;-76
2022/09/29 06:46:25;;;;;;;26.53;15.40;;;;;;;7.24;100.00;98576.28;4191632;28;20405;-73
2022/09/29 06:48:53;;;;;;;26.77;16.10;;;;;;;7.33;100.00;98577.91;4166685;28;20373;-75
2022/09/29 06:51:22;;;;;;;25.40;15.17;;;;;;;7.31;100.00;98579.88;4170770;28;22269;-75
2022/09/29 06:53:52;;;;;;;23.03;14.30;;;;;;;7.35;100.00;98586.47;4157502;28;20303;-73
2022/09/29 06:56:29;;;;;;;25.87;14.73;;;;;;;7.34;100.00;98598.06;4191190;28;20322;-76
2022/09/29 06:58:55;;;;;;;22.50;14.10;;;;;;;7.35;100.00;98602.34;4171829;28;21563;-72
2022/09/29 07:01:21;;;;;;;25.27;14.77;;;;;;;7.37;100.00;98606.50;4168003;28;20301;-74
2022/09/29 07:03:48;;;;;;;22.53;13.83;;;;;;;7.34;100.00;98609.47;4152174;28;20318;-75
2022/09/29 07:06:15;;;;;;;24.10;13.60;;;;;;;7.33;100.00;98607.00;4183036;28;23454;-74
2022/09/29 07:08:45;;;;;;;33.33;13.70;;;;;;;7.44;100.00;98611.91;4152739;28;20333;-73
2022/09/29 07:11:12;;;;;;;22.40;13.67;;;;;;;7.53;100.00;98602.94;4156216;28;20243;-73
2022/09/29 07:13:39;;;;;;;20.23;12.83;;;;;;;7.49;100.00;98614.91;4175241;28;21638;-72
2022/09/29 07:16:07;;;;;;;24.03;13.50;;;;;;;7.63;100.00;98618.63;4161200;28;20245;-74
2022/09/29 07:18:34;;;;;;;21.20;12.97;;;;;;;7.60;100.00;98618.97;4147558;28;22739;-71
2022/09/29 07:21:01;;;;;;;23.00;13.50;;;;;;;7.57;100.00;98620.16;4150045;28;22131;-74
2022/09/29 07:23:28;;;;;;;21.13;13.67;;;;;;;7.52;100.00;98621.66;4158016;28;20249;-75
2022/09/29 07:25:55;;;;;;;23.83;12.90;;;;;;;7.50;100.00;98626.31;4172209;28;20237;-73
2022/09/29 07:28:21;;;;;;;22.23;13.97;;;;;;;7.46;100.00;98631.09;4152291;29;20247;-73
2022/09/29 07:31:03;;;;;;;20.90;13.17;;;;;;;7.72;100.00;98630.84;4153226;28;21831;-74
2022/09/29 07:33:39;;;;;;;24.13;13.90;;;;;;;7.83;100.00;98635.75;4171538;28;20314;-75
2022/09/29 07:36:06;;;;;;;25.43;14.03;;;;;;;7.89;100.00;98633.44;4167102;28;20383;-75
2022/09/29 07:38:33;;;;;;;19.47;12.43;;;;;;;7.96;100.00;98637.88;4158448;28;20754;-75
2022/09/29 07:41:01;;;;;;;20.70;12.43;;;;;;;7.99;100.00;98640.19;4161191;28;20248;-72
2022/09/29 07:43:29;;;;;;;19.57;12.30;;;;;;;7.85;100.00;98646.19;4161926;28;20327;-74
2022/09/29 07:45:56;;;;;;;20.23;11.97;;;;;;;7.85;100.00;98651.50;4169000;28;20340;-73
2022/09/29 07:48:22;;;;;;;18.03;11.43;;;;;;;7.86;100.00;98650.47;4184767;28;20500;-75
2022/09/29 07:51:14;;;;;;;19.00;12.50;;;;;;;7.82;100.00;98651.84;4178165;28;20281;-73
2022/09/29 07:53:41;;;;;;;18.57;11.83;;;;;;;7.96;100.00;98659.06;4173976;28;20615;-75
2022/09/29 07:56:13;;;;;;;16.63;10.80;;;;;;;8.03;100.00;98660.03;4153552;28;21599;-74
2022/09/29 07:58:40;;;;;;;19.10;11.67;;;;;;;8.24;100.00;98663.88;4172548;28;20245;-73
2022/09/29 08:01:12;;;;;;;17.50;10.43;;;;;;;8.75;100.00;98666.09;4181869;28;20889;-73
2022/09/29 08:03:40;;;;;;;17.40;10.53;;;;;;;8.87;99.06;98670.81;4171235;28;20236;-75
2022/09/29 08:06:08;;;;;;;16.30;9.53;;;;;;;9.06;98.89;98671.31;4160915;29;21257;-69
2022/09/29 08:08:39;;;;;;;13.53;9.87;;;;;;;9.01;99.01;98676.34;4162532;28;20867;-76
2022/09/29 08:11:10;;;;;;;15.30;9.40;;;;;;;8.88;98.62;98677.78;4195771;28;20313;-72
2022/09/29 08:13:55;;;;;;;12.83;9.10;;;;;;;8.62;98.07;98677.31;4177158;28;20235;-75
2022/09/29 08:16:22;;;;;;;12.57;8.77;;;;;;;8.58;99.71;98678.66;4163331;28;20251;-54
2022/09/29 08:18:49;;;;;;;14.40;8.63;;;;;;;8.69;99.85;98675.59;4173282;28;20696;-45
2022/09/29 08:21:15;;;;;;;15.30;9.80;;;;;;;8.60;98.88;98685.44;4170337;28;20283;-70
2022/09/29 08:23:42;;;;;;;16.87;9.47;;;;;;;8.70;99.22;98685.19;4180391;28;21386;-73
2022/09/29 08:26:15;;;;;;;14.27;9.87;;;;;;;8.88;99.15;98690.22;4178855;28;20416;-71
2022/09/29 08:28:42;;;;;;;15.70;10.03;;;;;;;9.40;97.73;98699.25;4207057;28;20351;-70
2022/09/29 08:31:11;;;;;;;15.13;10.27;;;;;;;9.95;94.71;98705.97;4190932;28;20585;-69
2022/09/29 08:33:37;;;;;;;12.77;9.10;;;;;;;10.05;94.35;98701.19;4150001;28;20238;-71
2022/09/29 08:36:13;;;;;;;14.97;9.57;;;;;;;9.98;94.14;98704.78;4160906;28;20261;-71
2022/09/29 08:38:50;;;;;;;10.63;8.33;;;;;;;9.65;94.52;98705.97;4173795;28;20318;-69
2022/09/29 08:41:26;;;;;;;11.07;7.87;;;;;;;9.65;93.39;98705.16;4161379;28;20230;-72
2022/09/29 08:43:59;;;;;;;11.57;8.03;;;;;;;9.71;93.52;98699.91;4181137;28;24969;-72
2022/09/29 08:46:37;;;;;;;11.13;7.63;;;;;;;9.93;91.94;98708.81;4177031;28;20242;-72
2022/09/29 08:49:10;;;;;;;10.97;7.60;;;;;;;9.90;91.09;98713.66;4168362;28;20242;-68
2022/09/29 08:51:44;;;;;;;13.37;8.60;;;;;;;9.94;91.48;98715.75;4164641;28;22787;-72
2022/09/29 08:54:22;;;;;;;12.67;7.83;;;;;;;10.13;90.38;98718.88;4222994;28;20249;-70
2022/09/29 08:57:05;;;;;;;11.10;8.00;;;;;;;9.73;91.33;98724.44;4184250;28;20316;-69
2022/09/29 08:59:32;;;;;;;10.37;7.33;;;;;;;9.44;93.39;98725.25;4171436;29;20597;-72
2022/09/29 09:02:12;;;;;;;13.13;8.63;;;;;;;9.48;94.37;98725.69;4184390;28;20421;-71
2022/09/29 09:04:54;;;;;;;12.40;7.80;;;;;;;9.82;92.58;98729.69;4160966;28;22868;-74
2022/09/29 09:07:40;;;;;;;10.80;7.43;;;;;;;9.73;92.68;98728.94;4173317;28;20567;-72
2022/09/29 09:10:37;;;;;;;14.00;7.93;;;;;;;9.75;92.04;98731.44;4220387;28;21714;-70
2022/09/29 09:13:23;;;;;;;12.93;8.10;;;;;;;9.64;93.69;98738.81;4173446;28;21230;-69
2022/09/29 09:16:05;;;;;;;14.77;8.40;;;;;;;9.73;92.92;98735.09;4159232;28;21617;-70
2022/09/29 09:19:03;;;;;;;10.97;7.87;;;;;;;9.54;93.05;98735.59;4178251;28;21836;-68
2022/09/29 09:21:41;;;;;;;12.07;7.97;;;;;;;9.70;91.81;98740.75;4164026;28;20255;-71
2022/09/29 09:24:37;;;;;;;12.07;8.07;;;;;;;9.67;92.13;98735.00;4147459;28;21510;-74
2022/09/29 09:27:03;;;;;;;14.47;8.27;;;;;;;9.62;92.88;98740.84;4146853;28;20893;-72
2022/09/29 09:29:39;;;;;;;12.70;9.07;;;;;;;9.66;94.53;98738.66;4177064;28;20897;-77
2022/09/29 09:32:16;;;;;;;11.70;8.13;;;;;;;9.67;92.04;98746.44;4194074;28;20651;-77
2022/09/29 09:34:59;;;;;;;12.37;8.50;;;;;;;9.69;93.25;98744.44;4163453;28;20239;-75
2022/09/29 09:37:46;;;;;;;11.43;8.20;;;;;;;9.78;92.03;98744.34;4160426;28;20243;-71
2022/09/29 09:40:24;;;;;;;20.30;9.03;;;;;;;9.68;93.18;98742.78;4157538;28;20580;-70
2022/09/29 09:43:04;;;;;;;11.70;8.57;;;;;;;9.65;92.44;98747.63;4153787;28;24740;-68
2022/09/29 09:45:38;;;;;;;13.07;9.17;;;;;;;9.51;92.91;98747.41;4165126;28;20230;-70
2022/09/29 09:48:28;;;;;;;13.43;9.27;;;;;;;9.46;92.81;98760.41;4170089;28;20240;-75
2022/09/29 09:51:00;;;;;;;12.13;8.67;;;;;;;9.30;93.20;98753.41;4165516;28;25838;-75
2022/09/29 09:53:52;;;;;;;11.83;8.50;;;;;;;9.41;93.24;98769.91;4157844;28;20236;-74
2022/09/29 09:56:47;;;;;;;12.17;8.23;;;;;;;9.40;91.63;98765.59;4170003;28;20685;-74
2022/09/29 09:59:30;;;;;;;12.97;9.47;;;;;;;9.32;92.24;98774.47;4175974;28;20236;-74
2022/09/29 10:01:57;;;;;;;14.23;9.87;;;;;;;9.25;93.17;98779.66;4170431;28;20257;-75
2022/09/29 10:04:24;;;;;;;11.40;8.80;;;;;;;9.36;92.22;98774.91;4172177;28;20284;-76
2022/09/29 10:06:51;;;;;;;12.47;8.97;;;;;;;9.25;92.95;98782.31;4179911;28;20278;-72
2022/09/29 10:09:18;;;;;;;11.80;8.93;;;;;;;9.22;93.45;98790.59;4164050;28;20597;-78
2022/09/29 10:11:45;;;;;;;16.03;9.70;;;;;;;9.32;93.03;98790.41;4161993;28;22102;-77
2022/09/29 10:14:20;;;;;;;12.67;8.60;;;;;;;9.27;94.07;98790.94;4162625;28;20326;-75
2022/09/29 10:17:06;;;;;;;12.37;8.80;;;;;;;9.43;93.64;98791.78;4160332;28;20243;-75
2022/09/29 10:19:52;;;;;;;14.77;9.37;;;;;;;9.49;94.16;98796.41;4160647;28;20271;-75
2022/09/29 10:22:19;;;;;;;15.00;9.27;;;;;;;9.33;94.18;98796.53;4171353;28;22661;-76
2022/09/29 10:25:04;;;;;;;15.03;10.33;;;;;;;9.24;94.62;98793.91;4168477;28;20238;-76
2022/09/29 10:27:31;;;;;;;14.00;10.03;;;;;;;9.27;95.07;98808.66;4169377;28;20291;-77
2022/09/29 10:29:58;;;;;;;14.27;10.60;;;;;;;9.22;94.73;98805.72;4162662;28;20250;-77
2022/09/29 10:32:35;;;;;;;13.77;10.37;;;;;;;9.16;95.44;98807.25;4154399;28;20271;-77
2022/09/29 10:35:08;;;;;;;15.90;10.50;;;;;;;9.23;95.02;98810.03;4152115;28;20662;-75
2022/09/29 10:37:36;;;;;;;17.30;11.93;;;;;;;9.26;96.68;98812.31;4170611;28;25655;-77
2022/09/29 10:40:20;;;;;;;19.13;12.43;;;;;;;9.12;95.22;98813.91;4162739;28;20602;-75
2022/09/29 10:42:49;;;;;;;26.03;12.53;;;;;;;8.97;95.90;98818.31;4181929;28;20622;-76
2022/09/29 10:45:24;;;;;;;19.50;12.33;;;;;;;9.11;96.28;98812.28;4164264;28;20415;-75
2022/09/29 10:47:56;;;;;;;17.87;12.70;;;;;;;9.07;96.79;98816.25;4181145;28;21940;-77
2022/09/29 10:50:28;;;;;;;19.63;13.43;;;;;;;9.03;97.69;98815.78;4185241;28;20524;-76
2022/09/29 10:53:19;;;;;;;18.33;12.37;;;;;;;9.13;97.57;98815.56;4176321;28;20507;-77
2022/09/29 10:55:52;;;;;;;18.90;13.07;;;;;;;9.23;97.09;98818.00;4170443;28;20236;-77
2022/09/29 10:58:26;;;;;;;21.90;13.13;;;;;;;9.35;96.75;98821.06;4157671;28;20239;-75
2022/09/29 11:01:15;;;;;;;23.50;13.40;;;;;;;9.41;97.28;98826.50;4179721;28;20662;-76
2022/09/29 11:04:00;;;;;;;20.37;13.23;;;;;;;9.54;94.33;98831.19;4200766;28;20328;-76
2022/09/29 11:06:28;;;;;;;24.70;14.17;;;;;;;9.50;95.35;98836.06;4184080;28;20574;-75
2022/09/29 11:08:56;;;;;;;22.70;13.73;;;;;;;9.47;93.87;98835.56;4165720;28;20426;-76
2022/09/29 11:11:28;;;;;;;19.60;12.93;;;;;;;9.46;92.67;98841.91;4205554;28;20232;-77
2022/09/29 11:13:55;;;;;;;19.50;13.50;;;;;;;9.50;94.49;98846.69;4184057;28;20738;-78
2022/09/29 11:16:36;;;;;;;18.60;12.97;;;;;;;9.62;93.00;98846.25;4172596;28;20616;-77
2022/09/29 11:19:11;;;;;;;17.27;12.27;;;;;;;9.62;92.36;98847.09;4178968;28;20251;-75
2022/09/29 11:21:50;;;;;;;17.17;12.60;;;;;;;9.65;91.65;98848.56;4173976;28;21218;-79
2022/09/29 11:24:19;;;;;;;18.47;13.07;;;;;;;9.69;92.46;98850.69;4188653;28;20240;-75
2022/09/29 11:26:51;;;;;;;17.00;12.93;;;;;;;9.73;91.49;98849.31;4172337;28;20251;-77
2022/09/29 11:29:31;;;;;;;18.80;13.70;;;;;;;9.92;92.27;98845.31;4209825;28;21069;-77
2022/09/29 11:32:13;;;;;;;21.30;12.97;;;;;;;9.93;91.70;98840.84;4171963;28;21507;-77
2022/09/29 11:35:04;;;;;;;17.77;12.40;;;;;;;10.12;92.14;98845.63;4193965;28;20275;-76
2022/09/29 11:38:08;;;;;;;14.93;11.67;;;;;;;10.25;88.88;98852.16;4182630;28;21334;-78
2022/09/29 11:40:46;;;;;;;15.87;12.03;;;;;;;10.24;87.95;98853.19;4178065;28;20378;-77
2022/09/29 11:43:24;;;;;;;18.23;12.37;;;;;;;10.28;88.11;98852.66;4227911;28;20594;-78
2022/09/29 11:45:58;;;;;;;17.73;13.00;;;;;;;10.29;90.22;98861.47;4187851;28;20233;-76
2022/09/29 11:48:43;;;;;;;15.63;11.00;;;;;;;10.27;85.82;98852.81;4167736;28;20274;-76